createdAt,value
2019-03-06T00:02:54.067Z,5.77
2019-03-06T00:07:56.081Z,5.73
2019-03-06T00:12:58.333Z,5.76
2019-03-06T00:18:00.767Z,5.70
2019-03-06T00:23:02.785Z,5.74
2019-03-06T00:28:05.383Z,5.80
2019-03-06T00:33:07.599Z,5.78
2019-03-06T00:38:09.597Z,5.74
2019-03-06T00:43:12.393Z,5.71
2019-03-06T00:48:14.417Z,5.47
2019-03-06T00:53:17.653Z,5.43
2019-03-06T00:58:19.930Z,5.50
2019-03-06T01:03:22.313Z,5.63
2019-03-06T01:08:24.470Z,5.54
2019-03-06T01:13:26.586Z,5.50
2019-03-06T01:18:28.609Z,5.57
2019-03-06T01:23:30.980Z,5.51
2019-03-06T01:28:33.321Z,5.58
2019-03-06T01:33:46.873Z,5.53
2019-03-06T01:39:20.227Z,5.48
2019-03-06T01:44:26.184Z,5.50
2019-03-06T01:49:28.204Z,5.58
2019-03-06T01:54:30.245Z,5.56
2019-03-06T01:59:32.319Z,5.53
2019-03-06T02:04:34.423Z,5.55
2019-03-06T02:09:36.513Z,5.62
2019-03-06T02:14:38.652Z,5.66
2019-03-06T02:19:40.750Z,5.73
2019-03-06T02:24:42.812Z,5.71
2019-03-06T02:29:44.838Z,5.67
2019-03-06T02:34:47.085Z,5.79
2019-03-06T02:39:49.200Z,5.75
2019-03-06T02:44:51.320Z,5.73
2019-03-06T02:49:53.398Z,5.71
2019-03-06T02:54:55.570Z,5.76
2019-03-06T03:00:26.239Z,5.75
2019-03-06T03:05:39.632Z,5.75
2019-03-06T03:10:41.661Z,5.76
2019-03-06T03:15:43.691Z,5.83
2019-03-06T03:20:46.136Z,5.84
2019-03-06T03:25:48.262Z,5.87
2019-03-06T03:30:50.356Z,5.83
2019-03-06T03:35:52.446Z,5.90
2019-03-06T03:40:54.467Z,5.83
2019-03-06T03:45:56.467Z,5.76
2019-03-06T03:50:58.568Z,5.60
2019-03-06T03:56:00.647Z,5.60
2019-03-06T04:01:02.914Z,5.63
2019-03-06T04:06:04.988Z,5.64
2019-03-06T04:11:07.458Z,5.66
2019-03-06T04:16:09.499Z,5.68
2019-03-06T04:21:11.520Z,5.66
2019-03-06T04:26:13.598Z,5.65
2019-03-06T04:31:15.637Z,5.58
2019-03-06T04:36:17.666Z,5.55
2019-03-06T04:41:19.667Z,5.58
2019-03-06T04:46:21.701Z,5.54
2019-03-06T04:51:24.110Z,5.54
2019-03-06T04:56:26.314Z,5.43
2019-03-06T05:01:28.417Z,5.39
2019-03-06T05:06:30.591Z,5.27
2019-03-06T05:11:32.631Z,5.26
2019-03-06T05:16:58.570Z,5.28
2019-03-06T05:22:00.640Z,5.27
2019-03-06T05:27:02.713Z,5.20
2019-03-06T05:32:30.511Z,5.24
2019-03-06T05:38:23.531Z,5.27
2019-03-06T05:43:25.621Z,5.22
2019-03-06T05:48:27.948Z,5.16
2019-03-06T05:53:29.997Z,5.10
2019-03-06T05:58:32.073Z,5.12
2019-03-06T06:03:34.161Z,5.11
2019-03-06T06:08:36.477Z,5.10
2019-03-06T06:13:38.587Z,5.04
2019-03-06T06:18:40.833Z,5.08
2019-03-06T06:23:49.471Z,5.07
2019-03-06T06:28:51.562Z,5.12
2019-03-06T06:33:53.594Z,5.15
2019-03-06T06:38:56.031Z,5.19
2019-03-06T06:43:58.107Z,5.20
2019-03-06T06:49:00.144Z,5.23
2019-03-06T06:54:10.657Z,5.28
2019-03-06T06:59:20.770Z,5.24
2019-03-06T07:05:04.871Z,5.30
2019-03-06T07:10:25.323Z,5.36
2019-03-06T07:15:42.663Z,5.50
2019-03-06T07:21:03.368Z,5.58
2019-03-06T07:26:30.906Z,5.70
2019-03-06T07:31:49.514Z,5.85
2019-03-06T07:36:58.776Z,5.97
2019-03-06T07:42:29.456Z,6.07
2019-03-06T07:47:57.137Z,6.23
2019-03-06T07:54:27.715Z,6.36
2019-03-06T07:59:29.721Z,6.47
2019-03-06T08:04:31.920Z,6.55
2019-03-06T08:09:34.060Z,6.66
2019-03-06T08:14:56.139Z,6.75
2019-03-06T08:20:16.688Z,6.94
2019-03-06T08:25:27.692Z,7.09
2019-03-06T08:30:31.967Z,7.24
2019-03-06T08:35:34.065Z,7.31
2019-03-06T08:40:36.134Z,7.46
2019-03-06T08:46:00.504Z,7.74
2019-03-06T08:51:08.411Z,7.83
2019-03-06T08:56:16.248Z,7.85
2019-03-06T09:02:00.078Z,7.99
2019-03-06T09:07:06.929Z,8.10
2019-03-06T09:12:26.663Z,8.32
2019-03-06T09:17:51.330Z,8.59
2019-03-06T09:23:03.004Z,8.84
2019-03-06T09:28:42.807Z,8.98
2019-03-06T09:34:09.612Z,9.12
2019-03-06T09:39:41.057Z,9.35
2019-03-06T09:45:05.712Z,9.51
2019-03-06T09:50:33.813Z,9.67
2019-03-06T09:56:01.450Z,9.73
2019-03-06T10:01:22.066Z,9.85
2019-03-06T10:06:53.126Z,10.09
2019-03-06T10:12:02.895Z,10.26
2019-03-06T10:17:14.565Z,10.29
2019-03-06T10:22:17.239Z,10.36
2019-03-06T10:27:19.273Z,10.45
2019-03-06T10:32:21.537Z,10.74
2019-03-06T10:37:23.614Z,11.00
2019-03-06T10:42:25.726Z,11.50
2019-03-06T10:47:27.818Z,11.50
2019-03-06T10:52:29.919Z,11.76
2019-03-06T10:57:31.988Z,12.12
2019-03-06T11:02:34.420Z,12.14
2019-03-06T11:07:36.718Z,12.28
2019-03-06T11:12:39.084Z,12.46
2019-03-06T11:17:41.155Z,13.14
2019-03-06T11:22:43.698Z,13.14
2019-03-06T11:27:46.056Z,13.31
2019-03-06T11:32:54.388Z,13.88
2019-03-06T11:37:52.701Z,13.72
2019-03-06T11:42:54.827Z,14.00
2019-03-06T11:47:57.140Z,13.90
2019-03-06T11:52:59.192Z,13.91
2019-03-06T11:58:01.396Z,14.07
2019-03-06T12:03:05.055Z,14.42
2019-03-06T12:08:10.035Z,14.40
2019-03-06T12:13:13.775Z,14.41
2019-03-06T12:18:16.896Z,14.25
2019-03-06T12:23:19.675Z,14.34
2019-03-06T12:28:21.803Z,14.35
2019-03-06T12:33:25.897Z,14.24
2019-03-06T12:38:27.992Z,14.14
2019-03-06T12:43:30.272Z,13.83
2019-03-06T12:48:32.765Z,13.78
2019-03-06T12:53:34.892Z,13.64
2019-03-06T12:58:37.838Z,13.67
2019-03-06T13:03:39.963Z,13.53
2019-03-06T13:08:49.936Z,13.51
2019-03-06T13:13:46.173Z,13.44
2019-03-06T13:18:48.262Z,13.60
2019-03-06T13:23:50.773Z,13.74
2019-03-06T13:28:57.406Z,13.65
2019-03-06T13:34:28.734Z,13.61
2019-03-06T13:39:30.988Z,13.58
2019-03-06T13:44:33.054Z,13.62
2019-03-06T13:49:35.179Z,13.68
2019-03-06T13:54:37.399Z,13.60
2019-03-06T13:59:39.517Z,13.91
2019-03-06T14:04:41.604Z,14.38
2019-03-06T14:09:44.075Z,14.53
2019-03-06T14:14:46.076Z,14.33
2019-03-06T14:19:48.173Z,14.42
2019-03-06T14:24:50.245Z,14.42
2019-03-06T14:29:52.673Z,14.71
2019-03-06T14:34:55.754Z,15.45
2019-03-06T14:39:59.394Z,15.75
2019-03-06T14:45:01.840Z,15.51
2019-03-06T14:50:04.310Z,15.68
2019-03-06T14:55:08.696Z,15.72
2019-03-06T15:00:12.712Z,16.22
2019-03-06T15:05:15.536Z,18.61
2019-03-06T15:10:17.770Z,16.83
2019-03-06T15:15:19.980Z,15.89
2019-03-06T15:20:22.489Z,15.29
2019-03-06T15:25:24.656Z,15.01
2019-03-06T15:30:26.795Z,14.94
2019-03-06T15:35:29.238Z,14.78
2019-03-06T15:40:32.208Z,14.62
2019-03-06T15:45:34.343Z,14.79
2019-03-06T15:50:36.449Z,14.53
2019-03-06T15:55:38.974Z,14.34
2019-03-06T16:00:46.137Z,14.46
2019-03-06T16:05:45.943Z,14.37
2019-03-06T16:10:48.043Z,14.22
2019-03-06T16:15:50.283Z,14.17
2019-03-06T16:20:52.494Z,14.15
2019-03-06T16:25:54.985Z,13.87
2019-03-06T16:30:57.104Z,14.02
2019-03-06T16:35:59.447Z,13.94
2019-03-06T16:41:01.532Z,13.79
2019-03-06T16:46:03.854Z,13.81
2019-03-06T16:51:08.114Z,13.91
2019-03-06T16:56:10.848Z,13.87
2019-03-06T17:01:13.267Z,13.58
2019-03-06T17:06:15.342Z,13.40
2019-03-06T17:11:17.551Z,13.29
2019-03-06T17:16:19.962Z,13.24
2019-03-06T17:21:22.055Z,13.18
2019-03-06T17:26:25.089Z,13.17
2019-03-06T17:31:27.530Z,13.12
2019-03-06T17:36:29.966Z,13.09
2019-03-06T17:41:32.113Z,13.03
2019-03-06T17:46:34.296Z,12.93
2019-03-06T17:51:36.366Z,13.02
2019-03-06T17:56:38.411Z,12.95
2019-03-06T18:01:40.541Z,12.82
2019-03-06T18:06:42.771Z,12.68
2019-03-06T18:11:44.955Z,12.49
2019-03-06T18:16:47.188Z,12.35
2019-03-06T18:21:49.256Z,12.27
2019-03-06T18:26:51.304Z,11.93
2019-03-06T18:31:53.729Z,11.93
2019-03-06T18:36:55.845Z,11.83
2019-03-06T18:41:58.134Z,11.71
2019-03-06T18:47:00.455Z,11.71
2019-03-06T18:52:02.743Z,11.56
2019-03-06T18:57:05.154Z,11.56
2019-03-06T19:02:07.325Z,11.28
2019-03-06T19:07:09.629Z,11.28
2019-03-06T19:12:11.772Z,11.23
2019-03-06T19:17:13.878Z,11.27
2019-03-06T19:22:16.045Z,11.25
2019-03-06T19:27:18.219Z,11.20
2019-03-06T19:32:20.329Z,11.13
2019-03-06T19:37:22.527Z,11.14
2019-03-06T19:42:24.620Z,11.04
2019-03-06T19:47:27.053Z,11.04
2019-03-06T19:52:29.125Z,11.06
2019-03-06T19:57:50.484Z,11.07
2019-03-06T20:02:52.655Z,11.03
2019-03-06T20:07:54.740Z,11.00
2019-03-06T20:12:57.084Z,11.00
2019-03-06T20:18:03.821Z,10.98
2019-03-06T20:23:06.317Z,10.93
2019-03-06T20:28:08.640Z,10.87
2019-03-06T20:33:11.141Z,10.84
2019-03-06T20:38:13.453Z,10.99
2019-03-06T20:43:15.612Z,10.99
2019-03-06T20:48:17.721Z,11.06
2019-03-06T20:53:19.938Z,11.07
2019-03-06T20:58:34.128Z,10.92
2019-03-06T21:03:36.277Z,10.98
2019-03-06T21:08:38.464Z,10.97
2019-03-06T21:13:40.950Z,10.98
2019-03-06T21:18:43.083Z,10.93
2019-03-06T21:23:45.255Z,10.91
2019-03-06T21:28:52.649Z,10.91
2019-03-06T21:33:54.960Z,10.95
2019-03-06T21:38:57.049Z,10.97
2019-03-06T21:43:59.200Z,10.97
2019-03-06T21:49:01.901Z,10.97
2019-03-06T21:54:04.083Z,10.91
2019-03-06T21:59:06.157Z,10.91
2019-03-06T22:04:08.250Z,11.03
2019-03-06T22:09:12.362Z,10.98
2019-03-06T22:14:14.487Z,10.98
2019-03-06T22:19:16.600Z,11.00
2019-03-06T22:24:18.727Z,10.93
2019-03-06T22:29:20.906Z,10.93
2019-03-06T22:34:23.087Z,11.05
2019-03-06T22:39:25.446Z,11.40
2019-03-06T22:44:27.599Z,11.14
2019-03-06T22:49:29.687Z,11.07
2019-03-06T22:54:31.802Z,10.89
2019-03-06T22:59:33.845Z,10.87
2019-03-06T23:04:36.016Z,10.89
2019-03-06T23:09:38.116Z,10.88
2019-03-06T23:14:40.359Z,10.91
2019-03-06T23:19:42.427Z,10.93
2019-03-06T23:24:44.485Z,10.93
2019-03-06T23:29:46.819Z,10.94
2019-03-06T23:34:48.859Z,10.85
2019-03-06T23:39:50.913Z,10.69
2019-03-06T23:44:53.181Z,10.79
2019-03-06T23:49:55.262Z,10.71
2019-03-06T23:54:57.370Z,10.73
2019-03-06T23:59:59.408Z,10.73
